sensor_id;sensor_type;location;lat;lon;timestamp;P1;durP1;ratioP1;P2;durP2;ratioP2
19084;SDS011;9675;51.538;6.728;2023-03-23T00:02:02;2.20;;;1.40;;
19084;SDS011;9675;51.538;6.728;2023-03-23T00:04:29;2.83;;;0.93;;
19084;SDS011;9675;51.538;6.728;2023-03-23T00:06:58;5.50;;;1.10;;
19084;SDS011;9675;51.538;6.728;2023-03-23T00:09:27;2.67;;;1.20;;
19084;SDS011;9675;51.538;6.728;2023-03-23T00:11:59;2.00;;;1.10;;
19084;SDS011;9675;51.538;6.728;2023-03-23T00:14:30;2.87;;;1.20;;
19084;SDS011;9675;51.538;6.728;2023-03-23T00:17:06;1.67;;;1.10;;
19084;SDS011;9675;51.538;6.728;2023-03-23T00:19:35;1.93;;;1.00;;
19084;SDS011;9675;51.538;6.728;2023-03-23T00:22:12;1.83;;;1.47;;
19084;SDS011;9675;51.538;6.728;2023-03-23T00:24:42;2.20;;;0.80;;
19084;SDS011;9675;51.538;6.728;2023-03-23T00:27:10;3.10;;;1.30;;
19084;SDS011;9675;51.538;6.728;2023-03-23T00:29:39;2.20;;;1.47;;
19084;SDS011;9675;51.538;6.728;2023-03-23T00:32:09;3.43;;;1.23;;
19084;SDS011;9675;51.538;6.728;2023-03-23T00:34:39;3.57;;;1.40;;
19084;SDS011;9675;51.538;6.728;2023-03-23T00:37:08;3.23;;;1.43;;
19084;SDS011;9675;51.538;6.728;2023-03-23T00:39:37;1.27;;;0.90;;
19084;SDS011;9675;51.538;6.728;2023-03-23T00:42:11;2.43;;;1.20;;
19084;SDS011;9675;51.538;6.728;2023-03-23T00:44:39;1.67;;;1.07;;
19084;SDS011;9675;51.538;6.728;2023-03-23T00:47:07;1.67;;;1.10;;
19084;SDS011;9675;51.538;6.728;2023-03-23T00:49:35;2.20;;;1.37;;
19084;SDS011;9675;51.538;6.728;2023-03-23T00:52:03;2.00;;;1.00;;
19084;SDS011;9675;51.538;6.728;2023-03-23T00:54:32;4.77;;;2.00;;
19084;SDS011;9675;51.538;6.728;2023-03-23T00:57:04;3.33;;;1.37;;
19084;SDS011;9675;51.538;6.728;2023-03-23T00:59:31;4.33;;;1.50;;
19084;SDS011;9675;51.538;6.728;2023-03-23T01:01:58;6.97;;;2.87;;
19084;SDS011;9675;51.538;6.728;2023-03-23T01:04:25;4.97;;;1.80;;
19084;SDS011;9675;51.538;6.728;2023-03-23T01:06:56;2.93;;;1.10;;
19084;SDS011;9675;51.538;6.728;2023-03-23T01:09:25;12.30;;;4.93;;
19084;SDS011;9675;51.538;6.728;2023-03-23T01:11:53;5.83;;;1.80;;
19084;SDS011;9675;51.538;6.728;2023-03-23T01:14:22;4.33;;;2.03;;
19084;SDS011;9675;51.538;6.728;2023-03-23T01:16:50;4.30;;;1.90;;
19084;SDS011;9675;51.538;6.728;2023-03-23T01:19:17;3.73;;;1.87;;
19084;SDS011;9675;51.538;6.728;2023-03-23T01:21:44;7.00;;;2.33;;
19084;SDS011;9675;51.538;6.728;2023-03-23T01:24:11;5.33;;;2.53;;
19084;SDS011;9675;51.538;6.728;2023-03-23T01:26:38;5.87;;;1.73;;
19084;SDS011;9675;51.538;6.728;2023-03-23T01:29:05;4.13;;;1.50;;
19084;SDS011;9675;51.538;6.728;2023-03-23T01:31:34;2.10;;;1.30;;
19084;SDS011;9675;51.538;6.728;2023-03-23T01:34:01;1.73;;;1.40;;
19084;SDS011;9675;51.538;6.728;2023-03-23T01:36:29;3.53;;;1.50;;
19084;SDS011;9675;51.538;6.728;2023-03-23T01:38:58;2.73;;;1.50;;
19084;SDS011;9675;51.538;6.728;2023-03-23T01:41:28;2.10;;;1.50;;
19084;SDS011;9675;51.538;6.728;2023-03-23T01:43:58;2.47;;;1.50;;
19084;SDS011;9675;51.538;6.728;2023-03-23T01:46:29;3.93;;;2.33;;
19084;SDS011;9675;51.538;6.728;2023-03-23T01:49:00;3.90;;;2.20;;
19084;SDS011;9675;51.538;6.728;2023-03-23T01:51:33;3.23;;;1.57;;
19084;SDS011;9675;51.538;6.728;2023-03-23T01:54:07;4.00;;;1.70;;
19084;SDS011;9675;51.538;6.728;2023-03-23T01:56:45;4.30;;;1.90;;
19084;SDS011;9675;51.538;6.728;2023-03-23T01:59:16;3.53;;;1.50;;
19084;SDS011;9675;51.538;6.728;2023-03-23T02:01:45;3.13;;;1.80;;
19084;SDS011;9675;51.538;6.728;2023-03-23T02:04:14;2.53;;;1.50;;
19084;SDS011;9675;51.538;6.728;2023-03-23T02:06:43;7.03;;;1.83;;
19084;SDS011;9675;51.538;6.728;2023-03-23T02:09:11;2.70;;;1.43;;
19084;SDS011;9675;51.538;6.728;2023-03-23T02:11:42;3.73;;;1.50;;
19084;SDS011;9675;51.538;6.728;2023-03-23T02:14:09;4.67;;;2.00;;
19084;SDS011;9675;51.538;6.728;2023-03-23T02:16:40;3.73;;;1.13;;
19084;SDS011;9675;51.538;6.728;2023-03-23T02:19:21;4.17;;;1.80;;
19084;SDS011;9675;51.538;6.728;2023-03-23T02:26:06;3.17;;;1.30;;
19084;SDS011;9675;51.538;6.728;2023-03-23T02:28:58;3.17;;;1.30;;
19084;SDS011;9675;51.538;6.728;2023-03-23T02:32:01;3.87;;;1.53;;
19084;SDS011;9675;51.538;6.728;2023-03-23T02:34:48;5.20;;;1.67;;
19084;SDS011;9675;51.538;6.728;2023-03-23T02:37:19;2.23;;;1.67;;
19084;SDS011;9675;51.538;6.728;2023-03-23T02:39:55;4.43;;;1.33;;
19084;SDS011;9675;51.538;6.728;2023-03-23T02:42:32;2.37;;;1.40;;
19084;SDS011;9675;51.538;6.728;2023-03-23T02:45:04;2.90;;;2.00;;
19084;SDS011;9675;51.538;6.728;2023-03-23T02:47:38;4.83;;;2.00;;
19084;SDS011;9675;51.538;6.728;2023-03-23T02:50:14;4.70;;;1.87;;
19084;SDS011;9675;51.538;6.728;2023-03-23T02:52:53;6.63;;;1.87;;
19084;SDS011;9675;51.538;6.728;2023-03-23T02:55:35;3.80;;;1.73;;
19084;SDS011;9675;51.538;6.728;2023-03-23T02:58:09;4.67;;;1.83;;
19084;SDS011;9675;51.538;6.728;2023-03-23T03:00:37;3.63;;;2.00;;
19084;SDS011;9675;51.538;6.728;2023-03-23T03:03:06;4.47;;;2.00;;
19084;SDS011;9675;51.538;6.728;2023-03-23T03:05:49;4.80;;;2.40;;
19084;SDS011;9675;51.538;6.728;2023-03-23T03:08:30;5.37;;;2.07;;
19084;SDS011;9675;51.538;6.728;2023-03-23T03:11:11;3.37;;;1.30;;
19084;SDS011;9675;51.538;6.728;2023-03-23T03:13:44;6.37;;;2.30;;
19084;SDS011;9675;51.538;6.728;2023-03-23T03:16:21;5.90;;;2.47;;
19084;SDS011;9675;51.538;6.728;2023-03-23T03:18:56;8.07;;;2.53;;
19084;SDS011;9675;51.538;6.728;2023-03-23T03:21:36;5.73;;;2.30;;
19084;SDS011;9675;51.538;6.728;2023-03-23T03:24:08;5.07;;;1.90;;
19084;SDS011;9675;51.538;6.728;2023-03-23T03:26:40;7.33;;;1.83;;
19084;SDS011;9675;51.538;6.728;2023-03-23T03:29:12;5.43;;;1.53;;
19084;SDS011;9675;51.538;6.728;2023-03-23T03:31:42;3.17;;;1.53;;
19084;SDS011;9675;51.538;6.728;2023-03-23T03:34:14;7.07;;;2.00;;
19084;SDS011;9675;51.538;6.728;2023-03-23T03:36:44;3.30;;;1.30;;
19084;SDS011;9675;51.538;6.728;2023-03-23T03:39:15;5.10;;;1.73;;
19084;SDS011;9675;51.538;6.728;2023-03-23T03:41:44;2.97;;;1.70;;
19084;SDS011;9675;51.538;6.728;2023-03-23T03:44:12;3.03;;;1.87;;
19084;SDS011;9675;51.538;6.728;2023-03-23T03:46:40;3.83;;;1.60;;
19084;SDS011;9675;51.538;6.728;2023-03-23T03:49:08;3.57;;;1.43;;
19084;SDS011;9675;51.538;6.728;2023-03-23T03:51:38;6.57;;;2.40;;
19084;SDS011;9675;51.538;6.728;2023-03-23T03:54:08;3.40;;;1.73;;
19084;SDS011;9675;51.538;6.728;2023-03-23T03:56:35;4.10;;;2.10;;
19084;SDS011;9675;51.538;6.728;2023-03-23T03:59:05;2.77;;;1.63;;
19084;SDS011;9675;51.538;6.728;2023-03-23T04:01:34;1.80;;;0.97;;
19084;SDS011;9675;51.538;6.728;2023-03-23T04:04:03;2.10;;;1.17;;
19084;SDS011;9675;51.538;6.728;2023-03-23T04:06:32;1.80;;;1.20;;
19084;SDS011;9675;51.538;6.728;2023-03-23T04:09:01;1.57;;;0.90;;
19084;SDS011;9675;51.538;6.728;2023-03-23T04:11:32;1.77;;;1.20;;
19084;SDS011;9675;51.538;6.728;2023-03-23T04:14:00;1.43;;;1.00;;
19084;SDS011;9675;51.538;6.728;2023-03-23T04:16:27;3.10;;;1.70;;
19084;SDS011;9675;51.538;6.728;2023-03-23T04:18:55;4.00;;;1.10;;
19084;SDS011;9675;51.538;6.728;2023-03-23T04:21:22;3.17;;;1.00;;
19084;SDS011;9675;51.538;6.728;2023-03-23T04:23:53;1.53;;;0.90;;
19084;SDS011;9675;51.538;6.728;2023-03-23T04:26:23;1.73;;;0.90;;
19084;SDS011;9675;51.538;6.728;2023-03-23T04:28:53;1.63;;;1.17;;
19084;SDS011;9675;51.538;6.728;2023-03-23T04:31:20;2.73;;;1.20;;
19084;SDS011;9675;51.538;6.728;2023-03-23T04:33:49;1.53;;;1.00;;
19084;SDS011;9675;51.538;6.728;2023-03-23T04:36:18;2.57;;;1.27;;
19084;SDS011;9675;51.538;6.728;2023-03-23T04:38:47;2.30;;;1.10;;
19084;SDS011;9675;51.538;6.728;2023-03-23T04:41:19;1.50;;;0.97;;
19084;SDS011;9675;51.538;6.728;2023-03-23T04:43:47;4.87;;;1.47;;
19084;SDS011;9675;51.538;6.728;2023-03-23T04:46:18;3.33;;;1.83;;
19084;SDS011;9675;51.538;6.728;2023-03-23T04:48:46;1.70;;;1.13;;
19084;SDS011;9675;51.538;6.728;2023-03-23T04:51:13;2.40;;;1.23;;
19084;SDS011;9675;51.538;6.728;2023-03-23T04:53:41;1.63;;;1.17;;
19084;SDS011;9675;51.538;6.728;2023-03-23T04:56:08;5.07;;;2.60;;
19084;SDS011;9675;51.538;6.728;2023-03-23T04:58:35;2.33;;;1.10;;
19084;SDS011;9675;51.538;6.728;2023-03-23T05:01:04;3.40;;;1.70;;
19084;SDS011;9675;51.538;6.728;2023-03-23T05:03:33;5.33;;;1.87;;
19084;SDS011;9675;51.538;6.728;2023-03-23T05:06:01;8.47;;;3.23;;
19084;SDS011;9675;51.538;6.728;2023-03-23T05:08:28;4.07;;;2.43;;
19084;SDS011;9675;51.538;6.728;2023-03-23T05:10:57;2.30;;;1.40;;
19084;SDS011;9675;51.538;6.728;2023-03-23T05:13:26;2.30;;;1.50;;
19084;SDS011;9675;51.538;6.728;2023-03-23T05:15:54;2.60;;;1.63;;
19084;SDS011;9675;51.538;6.728;2023-03-23T05:18:21;1.73;;;1.30;;
19084;SDS011;9675;51.538;6.728;2023-03-23T05:20:52;10.03;;;4.77;;
19084;SDS011;9675;51.538;6.728;2023-03-23T05:23:19;6.10;;;3.43;;
19084;SDS011;9675;51.538;6.728;2023-03-23T05:25:52;4.03;;;1.90;;
19084;SDS011;9675;51.538;6.728;2023-03-23T05:28:20;2.37;;;1.90;;
19084;SDS011;9675;51.538;6.728;2023-03-23T05:30:48;3.67;;;1.83;;
19084;SDS011;9675;51.538;6.728;2023-03-23T05:33:15;5.60;;;1.50;;
19084;SDS011;9675;51.538;6.728;2023-03-23T05:35:42;6.83;;;1.00;;
19084;SDS011;9675;51.538;6.728;2023-03-23T05:38:13;2.77;;;1.60;;
19084;SDS011;9675;51.538;6.728;2023-03-23T05:40:41;3.93;;;0.97;;
19084;SDS011;9675;51.538;6.728;2023-03-23T05:43:08;2.97;;;1.53;;
19084;SDS011;9675;51.538;6.728;2023-03-23T05:45:36;2.07;;;1.10;;
19084;SDS011;9675;51.538;6.728;2023-03-23T05:48:03;2.60;;;1.70;;
19084;SDS011;9675;51.538;6.728;2023-03-23T05:50:31;1.23;;;0.80;;
19084;SDS011;9675;51.538;6.728;2023-03-23T05:52:58;1.37;;;1.10;;
19084;SDS011;9675;51.538;6.728;2023-03-23T05:55:26;1.50;;;1.00;;
19084;SDS011;9675;51.538;6.728;2023-03-23T05:57:53;2.00;;;1.27;;
19084;SDS011;9675;51.538;6.728;2023-03-23T06:00:21;2.07;;;1.37;;
19084;SDS011;9675;51.538;6.728;2023-03-23T06:02:48;5.07;;;1.13;;
19084;SDS011;9675;51.538;6.728;2023-03-23T06:05:16;2.17;;;1.00;;
19084;SDS011;9675;51.538;6.728;2023-03-23T06:07:44;2.53;;;1.13;;
19084;SDS011;9675;51.538;6.728;2023-03-23T06:10:11;3.13;;;1.07;;
19084;SDS011;9675;51.538;6.728;2023-03-23T06:12:40;1.70;;;0.93;;
19084;SDS011;9675;51.538;6.728;2023-03-23T06:15:07;3.33;;;0.90;;
19084;SDS011;9675;51.538;6.728;2023-03-23T06:17:36;2.23;;;1.00;;
19084;SDS011;9675;51.538;6.728;2023-03-23T06:20:03;2.97;;;1.30;;
19084;SDS011;9675;51.538;6.728;2023-03-23T06:22:35;2.13;;;1.30;;
19084;SDS011;9675;51.538;6.728;2023-03-23T06:25:04;1.90;;;1.07;;
19084;SDS011;9675;51.538;6.728;2023-03-23T06:27:33;2.30;;;0.73;;
19084;SDS011;9675;51.538;6.728;2023-03-23T06:30:02;1.40;;;1.00;;
19084;SDS011;9675;51.538;6.728;2023-03-23T06:32:31;4.40;;;0.83;;
19084;SDS011;9675;51.538;6.728;2023-03-23T06:34:59;1.60;;;0.70;;
19084;SDS011;9675;51.538;6.728;2023-03-23T06:37:26;2.83;;;1.07;;
19084;SDS011;9675;51.538;6.728;2023-03-23T06:39:54;4.23;;;1.07;;
19084;SDS011;9675;51.538;6.728;2023-03-23T06:42:21;2.30;;;1.20;;
19084;SDS011;9675;51.538;6.728;2023-03-23T06:44:50;1.83;;;1.00;;
19084;SDS011;9675;51.538;6.728;2023-03-23T06:47:20;6.10;;;1.20;;
19084;SDS011;9675;51.538;6.728;2023-03-23T06:49:48;3.53;;;1.00;;
19084;SDS011;9675;51.538;6.728;2023-03-23T06:52:15;3.87;;;1.10;;
19084;SDS011;9675;51.538;6.728;2023-03-23T06:54:43;2.43;;;0.87;;
19084;SDS011;9675;51.538;6.728;2023-03-23T06:57:10;2.77;;;1.10;;
19084;SDS011;9675;51.538;6.728;2023-03-23T06:59:37;1.67;;;1.00;;
19084;SDS011;9675;51.538;6.728;2023-03-23T07:02:05;3.87;;;1.07;;
19084;SDS011;9675;51.538;6.728;2023-03-23T07:04:34;1.50;;;1.10;;
19084;SDS011;9675;51.538;6.728;2023-03-23T07:07:01;3.03;;;1.20;;
19084;SDS011;9675;51.538;6.728;2023-03-23T07:09:28;3.40;;;0.87;;
19084;SDS011;9675;51.538;6.728;2023-03-23T07:11:55;6.47;;;1.30;;
19084;SDS011;9675;51.538;6.728;2023-03-23T07:14:22;1.93;;;0.83;;
19084;SDS011;9675;51.538;6.728;2023-03-23T07:16:49;2.10;;;1.10;;
19084;SDS011;9675;51.538;6.728;2023-03-23T07:19:17;4.93;;;1.07;;
19084;SDS011;9675;51.538;6.728;2023-03-23T07:21:45;2.60;;;0.70;;
19084;SDS011;9675;51.538;6.728;2023-03-23T07:24:12;6.60;;;1.00;;
19084;SDS011;9675;51.538;6.728;2023-03-23T07:26:39;2.37;;;0.97;;
19084;SDS011;9675;51.538;6.728;2023-03-23T07:29:07;1.87;;;1.00;;
19084;SDS011;9675;51.538;6.728;2023-03-23T07:31:35;3.53;;;0.90;;
19084;SDS011;9675;51.538;6.728;2023-03-23T07:34:08;3.43;;;1.27;;
19084;SDS011;9675;51.538;6.728;2023-03-23T07:36:35;2.90;;;1.00;;
19084;SDS011;9675;51.538;6.728;2023-03-23T07:39:04;4.57;;;1.13;;
19084;SDS011;9675;51.538;6.728;2023-03-23T07:41:34;1.40;;;0.90;;
19084;SDS011;9675;51.538;6.728;2023-03-23T07:44:02;2.63;;;1.00;;
19084;SDS011;9675;51.538;6.728;2023-03-23T07:46:30;3.00;;;0.83;;
19084;SDS011;9675;51.538;6.728;2023-03-23T07:48:57;2.63;;;0.90;;
19084;SDS011;9675;51.538;6.728;2023-03-23T07:51:29;1.70;;;0.70;;
19084;SDS011;9675;51.538;6.728;2023-03-23T07:53:56;3.10;;;1.00;;
19084;SDS011;9675;51.538;6.728;2023-03-23T07:56:28;4.53;;;0.93;;
19084;SDS011;9675;51.538;6.728;2023-03-23T07:58:56;3.07;;;1.03;;
19084;SDS011;9675;51.538;6.728;2023-03-23T08:01:23;5.83;;;1.60;;
19084;SDS011;9675;51.538;6.728;2023-03-23T08:03:50;2.30;;;1.07;;
19084;SDS011;9675;51.538;6.728;2023-03-23T08:06:19;3.80;;;0.87;;
19084;SDS011;9675;51.538;6.728;2023-03-23T08:08:48;1.20;;;0.53;;
19084;SDS011;9675;51.538;6.728;2023-03-23T08:11:15;4.93;;;1.20;;
19084;SDS011;9675;51.538;6.728;2023-03-23T08:13:45;0.87;;;0.60;;
19084;SDS011;9675;51.538;6.728;2023-03-23T08:16:12;2.17;;;0.80;;
19084;SDS011;9675;51.538;6.728;2023-03-23T08:18:39;1.70;;;0.60;;
19084;SDS011;9675;51.538;6.728;2023-03-23T08:21:07;4.30;;;1.00;;
19084;SDS011;9675;51.538;6.728;2023-03-23T08:23:34;1.83;;;0.70;;
19084;SDS011;9675;51.538;6.728;2023-03-23T08:26:03;0.93;;;0.40;;
19084;SDS011;9675;51.538;6.728;2023-03-23T08:28:31;2.73;;;0.87;;
19084;SDS011;9675;51.538;6.728;2023-03-23T08:31:00;1.77;;;0.60;;
19084;SDS011;9675;51.538;6.728;2023-03-23T08:33:33;5.23;;;0.90;;
19084;SDS011;9675;51.538;6.728;2023-03-23T08:36:00;4.13;;;1.17;;
19084;SDS011;9675;51.538;6.728;2023-03-23T08:38:28;2.87;;;0.87;;
19084;SDS011;9675;51.538;6.728;2023-03-23T08:40:57;1.53;;;0.57;;
19084;SDS011;9675;51.538;6.728;2023-03-23T08:43:25;1.07;;;0.70;;
19084;SDS011;9675;51.538;6.728;2023-03-23T08:45:53;0.67;;;0.43;;
19084;SDS011;9675;51.538;6.728;2023-03-23T08:48:25;5.90;;;1.20;;
19084;SDS011;9675;51.538;6.728;2023-03-23T08:50:52;7.03;;;1.83;;
19084;SDS011;9675;51.538;6.728;2023-03-23T08:53:20;1.57;;;0.83;;
19084;SDS011;9675;51.538;6.728;2023-03-23T08:55:47;3.93;;;1.70;;
19084;SDS011;9675;51.538;6.728;2023-03-23T08:58:14;4.30;;;1.30;;
19084;SDS011;9675;51.538;6.728;2023-03-23T09:00:42;3.33;;;1.17;;
19084;SDS011;9675;51.538;6.728;2023-03-23T09:03:11;5.80;;;1.10;;
19084;SDS011;9675;51.538;6.728;2023-03-23T09:05:43;2.27;;;0.50;;
19084;SDS011;9675;51.538;6.728;2023-03-23T09:08:11;2.10;;;0.87;;
19084;SDS011;9675;51.538;6.728;2023-03-23T09:10:39;1.87;;;0.63;;
19084;SDS011;9675;51.538;6.728;2023-03-23T09:13:06;4.73;;;1.20;;
19084;SDS011;9675;51.538;6.728;2023-03-23T09:15:33;3.87;;;0.80;;
19084;SDS011;9675;51.538;6.728;2023-03-23T09:18:00;1.47;;;0.40;;
19084;SDS011;9675;51.538;6.728;2023-03-23T09:20:28;2.00;;;0.73;;
19084;SDS011;9675;51.538;6.728;2023-03-23T09:22:57;1.07;;;0.40;;
19084;SDS011;9675;51.538;6.728;2023-03-23T09:25:27;1.43;;;0.67;;
19084;SDS011;9675;51.538;6.728;2023-03-23T09:27:55;1.70;;;0.33;;
19084;SDS011;9675;51.538;6.728;2023-03-23T09:30:25;1.43;;;0.27;;
19084;SDS011;9675;51.538;6.728;2023-03-23T09:32:55;0.80;;;0.33;;
19084;SDS011;9675;51.538;6.728;2023-03-23T09:35:22;3.23;;;0.50;;
19084;SDS011;9675;51.538;6.728;2023-03-23T09:37:51;2.23;;;0.43;;
19084;SDS011;9675;51.538;6.728;2023-03-23T09:40:20;2.37;;;0.70;;
19084;SDS011;9675;51.538;6.728;2023-03-23T09:43:04;2.73;;;0.60;;
19084;SDS011;9675;51.538;6.728;2023-03-23T09:45:49;4.10;;;0.57;;
19084;SDS011;9675;51.538;6.728;2023-03-23T09:48:29;1.77;;;0.33;;
19084;SDS011;9675;51.538;6.728;2023-03-23T09:51:19;0.93;;;0.20;;
19084;SDS011;9675;51.538;6.728;2023-03-23T09:54:05;2.47;;;0.20;;
19084;SDS011;9675;51.538;6.728;2023-03-23T09:56:44;1.03;;;0.50;;
19084;SDS011;9675;51.538;6.728;2023-03-23T09:59:14;1.30;;;0.20;;
19084;SDS011;9675;51.538;6.728;2023-03-23T10:01:51;1.10;;;0.60;;
19084;SDS011;9675;51.538;6.728;2023-03-23T10:04:25;0.50;;;0.37;;
19084;SDS011;9675;51.538;6.728;2023-03-23T10:07:14;3.13;;;0.50;;
19084;SDS011;9675;51.538;6.728;2023-03-23T10:09:45;3.83;;;0.80;;
19084;SDS011;9675;51.538;6.728;2023-03-23T10:12:25;1.70;;;0.40;;
19084;SDS011;9675;51.538;6.728;2023-03-23T10:15:09;1.60;;;0.40;;
19084;SDS011;9675;51.538;6.728;2023-03-23T10:17:45;2.40;;;0.40;;
19084;SDS011;9675;51.538;6.728;2023-03-23T10:20:21;1.50;;;0.40;;
19084;SDS011;9675;51.538;6.728;2023-03-23T10:26:08;0.10;;;0.10;;
19084;SDS011;9675;51.538;6.728;2023-03-23T10:28:50;8.10;;;0.50;;
19084;SDS011;9675;51.538;6.728;2023-03-23T10:31:27;1.53;;;0.50;;
19084;SDS011;9675;51.538;6.728;2023-03-23T10:34:02;1.60;;;0.30;;
19084;SDS011;9675;51.538;6.728;2023-03-23T10:36:50;1.53;;;0.30;;
19084;SDS011;9675;51.538;6.728;2023-03-23T10:39:28;1.13;;;0.50;;
19084;SDS011;9675;51.538;6.728;2023-03-23T10:42:04;0.40;;;0.20;;
19084;SDS011;9675;51.538;6.728;2023-03-23T10:44:33;1.47;;;0.50;;
19084;SDS011;9675;51.538;6.728;2023-03-23T10:47:02;2.50;;;0.50;;
19084;SDS011;9675;51.538;6.728;2023-03-23T10:49:33;1.13;;;0.40;;
19084;SDS011;9675;51.538;6.728;2023-03-23T10:52:10;1.03;;;0.30;;
19084;SDS011;9675;51.538;6.728;2023-03-23T10:54:54;0.57;;;0.57;;
19084;SDS011;9675;51.538;6.728;2023-03-23T10:57:25;3.17;;;0.37;;
19084;SDS011;9675;51.538;6.728;2023-03-23T11:00:00;1.60;;;0.50;;
19084;SDS011;9675;51.538;6.728;2023-03-23T11:02:36;1.70;;;0.50;;
19084;SDS011;9675;51.538;6.728;2023-03-23T11:05:12;3.07;;;0.60;;
19084;SDS011;9675;51.538;6.728;2023-03-23T11:07:49;3.97;;;0.83;;
19084;SDS011;9675;51.538;6.728;2023-03-23T11:10:21;3.00;;;0.40;;
19084;SDS011;9675;51.538;6.728;2023-03-23T11:12:52;0.70;;;0.30;;
19084;SDS011;9675;51.538;6.728;2023-03-23T11:15:27;0.80;;;0.30;;
19084;SDS011;9675;51.538;6.728;2023-03-23T11:17:57;4.60;;;0.53;;
19084;SDS011;9675;51.538;6.728;2023-03-23T11:20:28;2.73;;;0.60;;
19084;SDS011;9675;51.538;6.728;2023-03-23T11:23:07;0.50;;;0.30;;
19084;SDS011;9675;51.538;6.728;2023-03-23T11:25:57;0.97;;;0.30;;
19084;SDS011;9675;51.538;6.728;2023-03-23T11:28:36;1.73;;;0.60;;
19084;SDS011;9675;51.538;6.728;2023-03-23T11:31:12;6.43;;;1.03;;
19084;SDS011;9675;51.538;6.728;2023-03-23T11:33:45;2.93;;;0.70;;
19084;SDS011;9675;51.538;6.728;2023-03-23T11:36:19;0.93;;;0.40;;
19084;SDS011;9675;51.538;6.728;2023-03-23T11:38:54;4.37;;;0.80;;
19084;SDS011;9675;51.538;6.728;2023-03-23T11:41:23;0.77;;;0.57;;
19084;SDS011;9675;51.538;6.728;2023-03-23T11:43:52;6.23;;;1.23;;
19084;SDS011;9675;51.538;6.728;2023-03-23T11:46:25;2.20;;;0.87;;
19084;SDS011;9675;51.538;6.728;2023-03-23T11:49:01;1.70;;;0.50;;
19084;SDS011;9675;51.538;6.728;2023-03-23T11:51:37;4.00;;;1.63;;
19084;SDS011;9675;51.538;6.728;2023-03-23T11:54:11;2.33;;;0.87;;
19084;SDS011;9675;51.538;6.728;2023-03-23T11:56:44;2.80;;;1.13;;
19084;SDS011;9675;51.538;6.728;2023-03-23T11:59:13;0.90;;;0.47;;
19084;SDS011;9675;51.538;6.728;2023-03-23T12:01:50;3.53;;;0.70;;
19084;SDS011;9675;51.538;6.728;2023-03-23T12:04:33;2.93;;;1.57;;
19084;SDS011;9675;51.538;6.728;2023-03-23T12:07:30;12.77;;;4.63;;
19084;SDS011;9675;51.538;6.728;2023-03-23T12:10:16;6.23;;;1.60;;
19084;SDS011;9675;51.538;6.728;2023-03-23T12:12:56;4.93;;;2.13;;
19084;SDS011;9675;51.538;6.728;2023-03-23T12:15:47;3.40;;;0.97;;
19084;SDS011;9675;51.538;6.728;2023-03-23T12:18:30;4.30;;;0.73;;
19084;SDS011;9675;51.538;6.728;2023-03-23T12:21:10;2.17;;;0.90;;
19084;SDS011;9675;51.538;6.728;2023-03-23T12:23:47;3.73;;;1.20;;
19084;SDS011;9675;51.538;6.728;2023-03-23T12:26:30;3.23;;;0.83;;
19084;SDS011;9675;51.538;6.728;2023-03-23T12:29:03;1.67;;;0.40;;
19084;SDS011;9675;51.538;6.728;2023-03-23T12:31:56;2.57;;;0.73;;
19084;SDS011;9675;51.538;6.728;2023-03-23T12:34:46;0.60;;;0.40;;
19084;SDS011;9675;51.538;6.728;2023-03-23T12:37:24;0.97;;;0.50;;
19084;SDS011;9675;51.538;6.728;2023-03-23T12:43:03;2.17;;;0.33;;
19084;SDS011;9675;51.538;6.728;2023-03-23T12:45:46;2.53;;;0.57;;
19084;SDS011;9675;51.538;6.728;2023-03-23T12:48:29;1.00;;;0.80;;
19084;SDS011;9675;51.538;6.728;2023-03-23T12:51:03;1.17;;;0.77;;
19084;SDS011;9675;51.538;6.728;2023-03-23T12:53:52;2.00;;;0.70;;
19084;SDS011;9675;51.538;6.728;2023-03-23T12:56:26;1.53;;;0.57;;
19084;SDS011;9675;51.538;6.728;2023-03-23T12:59:02;1.57;;;0.60;;
19084;SDS011;9675;51.538;6.728;2023-03-23T13:01:37;1.40;;;0.67;;
19084;SDS011;9675;51.538;6.728;2023-03-23T13:04:10;0.90;;;0.60;;
19084;SDS011;9675;51.538;6.728;2023-03-23T13:06:44;1.17;;;0.93;;
19084;SDS011;9675;51.538;6.728;2023-03-23T13:09:19;1.17;;;0.70;;
19084;SDS011;9675;51.538;6.728;2023-03-23T13:11:55;2.10;;;0.70;;
19084;SDS011;9675;51.538;6.728;2023-03-23T13:14:31;3.37;;;0.70;;
19084;SDS011;9675;51.538;6.728;2023-03-23T13:17:16;0.50;;;0.47;;
19084;SDS011;9675;51.538;6.728;2023-03-23T13:20:04;3.50;;;0.63;;
19084;SDS011;9675;51.538;6.728;2023-03-23T13:23:05;2.30;;;1.20;;
19084;SDS011;9675;51.538;6.728;2023-03-23T13:25:48;1.83;;;0.80;;
19084;SDS011;9675;51.538;6.728;2023-03-23T13:28:22;3.70;;;0.73;;
19084;SDS011;9675;51.538;6.728;2023-03-23T13:30:54;2.00;;;0.83;;
19084;SDS011;9675;51.538;6.728;2023-03-23T13:33:31;2.53;;;0.80;;
19084;SDS011;9675;51.538;6.728;2023-03-23T13:36:02;4.07;;;1.13;;
19084;SDS011;9675;51.538;6.728;2023-03-23T13:38:37;2.40;;;0.83;;
19084;SDS011;9675;51.538;6.728;2023-03-23T13:41:11;3.50;;;0.90;;
19084;SDS011;9675;51.538;6.728;2023-03-23T13:43:42;1.97;;;0.97;;
19084;SDS011;9675;51.538;6.728;2023-03-23T13:46:12;0.63;;;0.60;;
19084;SDS011;9675;51.538;6.728;2023-03-23T13:49:03;2.73;;;1.03;;
19084;SDS011;9675;51.538;6.728;2023-03-23T13:52:06;3.40;;;0.97;;
19084;SDS011;9675;51.538;6.728;2023-03-23T13:54:45;1.90;;;0.70;;
19084;SDS011;9675;51.538;6.728;2023-03-23T13:57:20;4.47;;;1.23;;
19084;SDS011;9675;51.538;6.728;2023-03-23T14:00:09;2.83;;;1.20;;
19084;SDS011;9675;51.538;6.728;2023-03-23T14:03:01;2.57;;;1.40;;
19084;SDS011;9675;51.538;6.728;2023-03-23T14:05:33;4.67;;;1.37;;
19084;SDS011;9675;51.538;6.728;2023-03-23T14:08:10;6.37;;;1.30;;
19084;SDS011;9675;51.538;6.728;2023-03-23T14:10:54;5.43;;;1.40;;
19084;SDS011;9675;51.538;6.728;2023-03-23T14:13:28;2.73;;;0.80;;
19084;SDS011;9675;51.538;6.728;2023-03-23T14:15:59;0.80;;;0.67;;
19084;SDS011;9675;51.538;6.728;2023-03-23T14:18:31;4.27;;;1.40;;
19084;SDS011;9675;51.538;6.728;2023-03-23T14:21:04;2.20;;;0.57;;
19084;SDS011;9675;51.538;6.728;2023-03-23T14:23:39;2.97;;;1.00;;
19084;SDS011;9675;51.538;6.728;2023-03-23T14:26:10;2.43;;;0.83;;
19084;SDS011;9675;51.538;6.728;2023-03-23T14:28:43;1.20;;;0.80;;
19084;SDS011;9675;51.538;6.728;2023-03-23T14:31:14;3.47;;;1.10;;
19084;SDS011;9675;51.538;6.728;2023-03-23T14:33:47;4.80;;;1.60;;
19084;SDS011;9675;51.538;6.728;2023-03-23T14:36:18;2.33;;;0.80;;
19084;SDS011;9675;51.538;6.728;2023-03-23T14:38:48;2.20;;;0.90;;
19084;SDS011;9675;51.538;6.728;2023-03-23T14:41:29;1.67;;;0.47;;
19084;SDS011;9675;51.538;6.728;2023-03-23T14:43:59;2.63;;;1.33;;
19084;SDS011;9675;51.538;6.728;2023-03-23T14:46:29;2.43;;;1.30;;
19084;SDS011;9675;51.538;6.728;2023-03-23T14:48:59;4.70;;;1.33;;
19084;SDS011;9675;51.538;6.728;2023-03-23T14:51:28;3.97;;;1.10;;
19084;SDS011;9675;51.538;6.728;2023-03-23T14:53:55;4.30;;;1.50;;
19084;SDS011;9675;51.538;6.728;2023-03-23T14:56:30;6.53;;;1.47;;
19084;SDS011;9675;51.538;6.728;2023-03-23T14:59:03;3.53;;;1.43;;
19084;SDS011;9675;51.538;6.728;2023-03-23T15:01:35;3.20;;;1.20;;
19084;SDS011;9675;51.538;6.728;2023-03-23T15:04:06;2.50;;;1.57;;
19084;SDS011;9675;51.538;6.728;2023-03-23T15:06:38;2.97;;;1.50;;
19084;SDS011;9675;51.538;6.728;2023-03-23T15:09:11;7.47;;;3.47;;
19084;SDS011;9675;51.538;6.728;2023-03-23T15:11:50;8.87;;;4.20;;
19084;SDS011;9675;51.538;6.728;2023-03-23T15:14:22;9.10;;;4.03;;
19084;SDS011;9675;51.538;6.728;2023-03-23T15:16:55;10.43;;;3.43;;
19084;SDS011;9675;51.538;6.728;2023-03-23T15:19:26;7.33;;;3.17;;
19084;SDS011;9675;51.538;6.728;2023-03-23T15:22:03;3.37;;;1.00;;
19084;SDS011;9675;51.538;6.728;2023-03-23T15:24:39;1.17;;;0.83;;
19084;SDS011;9675;51.538;6.728;2023-03-23T15:27:14;3.47;;;2.23;;
19084;SDS011;9675;51.538;6.728;2023-03-23T15:29:50;3.90;;;1.93;;
19084;SDS011;9675;51.538;6.728;2023-03-23T15:32:23;3.47;;;1.30;;
19084;SDS011;9675;51.538;6.728;2023-03-23T15:34:53;3.73;;;1.87;;
19084;SDS011;9675;51.538;6.728;2023-03-23T15:37:23;3.10;;;1.00;;
19084;SDS011;9675;51.538;6.728;2023-03-23T15:39:54;3.63;;;1.10;;
19084;SDS011;9675;51.538;6.728;2023-03-23T15:42:25;1.67;;;0.80;;